sensor_id;sensor_type;location;lat;lon;timestamp;temperature;humidity
6903;DHT22;20232;49.408;8.702;2022-11-14T05:01:17;6.50;99.90
6903;DHT22;20232;49.408;8.702;2022-11-14T05:03:43;6.50;99.90
6903;DHT22;20232;49.408;8.702;2022-11-14T05:06:09;6.50;99.90
6903;DHT22;20232;49.408;8.702;2022-11-14T05:08:34;6.50;99.90
6903;DHT22;20232;49.408;8.702;2022-11-14T05:11:00;6.50;99.90
6903;DHT22;20232;49.408;8.702;2022-11-14T05:13:25;6.40;99.90
6903;DHT22;20232;49.408;8.702;2022-11-14T05:15:51;6.40;99.90
6903;DHT22;20232;49.408;8.702;2022-11-14T05:18:16;6.40;99.90
6903;DHT22;20232;49.408;8.702;2022-11-14T05:20:42;6.30;99.90
6903;DHT22;20232;49.408;8.702;2022-11-14T05:23:28;6.20;99.90
6903;DHT22;20232;49.408;8.702;2022-11-14T05:26:08;6.20;99.90
6903;DHT22;20232;49.408;8.702;2022-11-14T05:28:34;6.10;99.90
6903;DHT22;20232;49.408;8.702;2022-11-14T05:31:09;6.00;99.90
6903;DHT22;20232;49.408;8.702;2022-11-14T05:33:35;5.90;99.90
6903;DHT22;20232;49.408;8.702;2022-11-14T05:36:04;5.80;99.90
6903;DHT22;20232;49.408;8.702;2022-11-14T05:38:30;5.80;99.90
6903;DHT22;20232;49.408;8.702;2022-11-14T05:40:56;5.70;99.90
6903;DHT22;20232;49.408;8.702;2022-11-14T05:43:21;5.70;99.90
6903;DHT22;20232;49.408;8.702;2022-11-14T05:45:47;5.60;99.90
6903;DHT22;20232;49.408;8.702;2022-11-14T05:48:13;5.60;99.90
6903;DHT22;20232;49.408;8.702;2022-11-14T05:50:38;5.70;99.90
6903;DHT22;20232;49.408;8.702;2022-11-14T05:53:04;5.70;99.90
6903;DHT22;20232;49.408;8.702;2022-11-14T05:55:29;5.60;99.90
6903;DHT22;20232;49.408;8.702;2022-11-14T05:57:58;5.60;99.90
6903;DHT22;20232;49.408;8.702;2022-11-14T06:00:25;5.60;99.90
6903;DHT22;20232;49.408;8.702;2022-11-14T06:02:52;5.60;99.90
6903;DHT22;20232;49.408;8.702;2022-11-14T06:05:19;5.70;99.90
6903;DHT22;20232;49.408;8.702;2022-11-14T06:07:45;5.60;99.90
6903;DHT22;20232;49.408;8.702;2022-11-14T06:10:11;5.60;99.90
6903;DHT22;20232;49.408;8.702;2022-11-14T06:12:38;5.60;99.90
6903;DHT22;20232;49.408;8.702;2022-11-14T06:15:03;5.60;99.90
6903;DHT22;20232;49.408;8.702;2022-11-14T06:17:29;5.50;99.90
6903;DHT22;20232;49.408;8.702;2022-11-14T06:19:55;5.60;99.90
6903;DHT22;20232;49.408;8.702;2022-11-14T06:22:20;5.60;99.90
6903;DHT22;20232;49.408;8.702;2022-11-14T06:24:46;5.60;99.90
6903;DHT22;20232;49.408;8.702;2022-11-14T06:27:11;5.70;99.90
6903;DHT22;20232;49.408;8.702;2022-11-14T06:29:37;5.70;99.90
6903;DHT22;20232;49.408;8.702;2022-11-14T06:32:02;5.60;99.90
6903;DHT22;20232;49.408;8.702;2022-11-14T06:34:28;5.70;99.90
6903;DHT22;20232;49.408;8.702;2022-11-14T06:36:54;5.70;99.90
6903;DHT22;20232;49.408;8.702;2022-11-14T06:39:19;5.70;99.90
6903;DHT22;20232;49.408;8.702;2022-11-14T06:41:45;5.80;99.90
6903;DHT22;20232;49.408;8.702;2022-11-14T06:44:10;5.80;99.90
6903;DHT22;20232;49.408;8.702;2022-11-14T06:46:36;5.80;99.90
6903;DHT22;20232;49.408;8.702;2022-11-14T06:49:01;5.90;99.90
6903;DHT22;20232;49.408;8.702;2022-11-14T06:51:27;5.80;99.90
6903;DHT22;20232;49.408;8.702;2022-11-14T06:53:52;5.90;99.90
6903;DHT22;20232;49.408;8.702;2022-11-14T06:56:18;5.90;99.90
6903;DHT22;20232;49.408;8.702;2022-11-14T06:58:46;5.90;99.90
6903;DHT22;20232;49.408;8.702;2022-11-14T07:01:23;5.90;99.90
6903;DHT22;20232;49.408;8.702;2022-11-14T07:03:50;5.90;99.90
6903;DHT22;20232;49.408;8.702;2022-11-14T07:06:22;5.90;99.90
6903;DHT22;20232;49.408;8.702;2022-11-14T07:08:48;6.10;99.90
6903;DHT22;20232;49.408;8.702;2022-11-14T07:11:22;6.10;99.90
6903;DHT22;20232;49.408;8.702;2022-11-14T07:13:53;6.20;99.90
6903;DHT22;20232;49.408;8.702;2022-11-14T07:16:20;6.30;99.90
6903;DHT22;20232;49.408;8.702;2022-11-14T07:18:47;6.40;99.90
6903;DHT22;20232;49.408;8.702;2022-11-14T07:21:13;6.50;99.90
6903;DHT22;20232;49.408;8.702;2022-11-14T07:23:39;6.60;99.90
6903;DHT22;20232;49.408;8.702;2022-11-14T07:26:07;6.70;99.90
6903;DHT22;20232;49.408;8.702;2022-11-14T07:28:38;6.70;99.90
6903;DHT22;20232;49.408;8.702;2022-11-14T07:31:09;6.70;99.90
6903;DHT22;20232;49.408;8.702;2022-11-14T07:33:36;6.80;99.90
6903;DHT22;20232;49.408;8.702;2022-11-14T07:36:02;6.70;99.90
6903;DHT22;20232;49.408;8.702;2022-11-14T07:38:30;6.70;99.90
6903;DHT22;20232;49.408;8.702;2022-11-14T07:41:00;6.60;99.90
6903;DHT22;20232;49.408;8.702;2022-11-14T07:43:27;6.60;99.90
6903;DHT22;20232;49.408;8.702;2022-11-14T07:45:53;6.70;99.90
6903;DHT22;20232;49.408;8.702;2022-11-14T07:48:19;6.60;99.90
6903;DHT22;20232;49.408;8.702;2022-11-14T07:50:46;6.60;99.90
6903;DHT22;20232;49.408;8.702;2022-11-14T07:53:12;6.60;99.90
6903;DHT22;20232;49.408;8.702;2022-11-14T07:55:39;6.60;99.90
6903;DHT22;20232;49.408;8.702;2022-11-14T07:58:05;6.60;99.90
6903;DHT22;20232;49.408;8.702;2022-11-14T08:00:31;6.60;99.90
6903;DHT22;20232;49.408;8.702;2022-11-14T08:02:56;6.70;99.90
6903;DHT22;20232;49.408;8.702;2022-11-14T08:05:22;6.70;99.90
6903;DHT22;20232;49.408;8.702;2022-11-14T08:07:51;6.70;99.90
6903;DHT22;20232;49.408;8.702;2022-11-14T08:10:17;6.80;99.90
6903;DHT22;20232;49.408;8.702;2022-11-14T08:12:44;6.90;99.90
6903;DHT22;20232;49.408;8.702;2022-11-14T08:15:12;7.00;99.90
6903;DHT22;20232;49.408;8.702;2022-11-14T08:17:38;7.00;99.90
6903;DHT22;20232;49.408;8.702;2022-11-14T08:20:05;7.10;99.90
6903;DHT22;20232;49.408;8.702;2022-11-14T08:22:31;7.20;99.90
6903;DHT22;20232;49.408;8.702;2022-11-14T08:24:57;7.20;99.90
6903;DHT22;20232;49.408;8.702;2022-11-14T08:27:23;7.20;99.90
6903;DHT22;20232;49.408;8.702;2022-11-14T08:29:49;7.20;99.90
6903;DHT22;20232;49.408;8.702;2022-11-14T08:32:18;7.20;99.90
6903;DHT22;20232;49.408;8.702;2022-11-14T08:34:44;7.30;99.90
6903;DHT22;20232;49.408;8.702;2022-11-14T08:37:10;7.50;99.90
6903;DHT22;20232;49.408;8.702;2022-11-14T08:39:35;7.60;99.90
6903;DHT22;20232;49.408;8.702;2022-11-14T08:42:01;7.70;99.90
6903;DHT22;20232;49.408;8.702;2022-11-14T08:44:26;7.80;99.90
6903;DHT22;20232;49.408;8.702;2022-11-14T08:46:52;7.90;99.90
6903;DHT22;20232;49.408;8.702;2022-11-14T08:49:17;7.90;99.90
6903;DHT22;20232;49.408;8.702;2022-11-14T08:51:43;8.10;99.90
6903;DHT22;20232;49.408;8.702;2022-11-14T08:54:09;8.40;99.90
6903;DHT22;20232;49.408;8.702;2022-11-14T08:56:35;8.50;99.90
6903;DHT22;20232;49.408;8.702;2022-11-14T08:59:03;8.40;99.90
6903;DHT22;20232;49.408;8.702;2022-11-14T09:01:29;8.50;99.90
6903;DHT22;20232;49.408;8.702;2022-11-14T09:03:57;8.50;99.90
6903;DHT22;20232;49.408;8.702;2022-11-14T09:06:22;8.60;99.90
6903;DHT22;20232;49.408;8.702;2022-11-14T09:08:48;8.70;99.90
6903;DHT22;20232;49.408;8.702;2022-11-14T09:11:14;8.70;99.90
6903;DHT22;20232;49.408;8.702;2022-11-14T09:13:39;8.70;99.90
6903;DHT22;20232;49.408;8.702;2022-11-14T09:16:05;8.80;99.90
6903;DHT22;20232;49.408;8.702;2022-11-14T09:18:30;8.80;99.90
6903;DHT22;20232;49.408;8.702;2022-11-14T09:21:05;8.90;99.90
6903;DHT22;20232;49.408;8.702;2022-11-14T09:23:31;9.10;99.90
6903;DHT22;20232;49.408;8.702;2022-11-14T09:25:57;9.30;99.90
6903;DHT22;20232;49.408;8.702;2022-11-14T09:28:23;9.40;99.90
6903;DHT22;20232;49.408;8.702;2022-11-14T09:30:49;9.50;99.90
6903;DHT22;20232;49.408;8.702;2022-11-14T09:33:15;9.60;99.90
6903;DHT22;20232;49.408;8.702;2022-11-14T09:35:41;9.60;99.90
6903;DHT22;20232;49.408;8.702;2022-11-14T09:38:08;9.50;99.90
6903;DHT22;20232;49.408;8.702;2022-11-14T09:45:56;9.40;99.90
6903;DHT22;20232;49.408;8.702;2022-11-14T09:48:23;9.40;99.90
6903;DHT22;20232;49.408;8.702;2022-11-14T09:51:21;9.50;99.90
6903;DHT22;20232;49.408;8.702;2022-11-14T09:53:51;9.50;99.90
6903;DHT22;20232;49.408;8.702;2022-11-14T09:56:27;9.50;99.90
6903;DHT22;20232;49.408;8.702;2022-11-14T09:58:53;9.50;99.90
6903;DHT22;20232;49.408;8.702;2022-11-14T10:04:46;9.60;99.90
6903;DHT22;20232;49.408;8.702;2022-11-14T10:13:05;9.80;99.90
6903;DHT22;20232;49.408;8.702;2022-11-14T10:18:48;10.00;99.90
6903;DHT22;20232;49.408;8.702;2022-11-14T10:27:32;10.20;99.90
6903;DHT22;20232;49.408;8.702;2022-11-14T10:30:08;10.20;99.90
6903;DHT22;20232;49.408;8.702;2022-11-14T10:35:28;10.30;99.90
6903;DHT22;20232;49.408;8.702;2022-11-14T10:38:17;10.40;99.90
6903;DHT22;20232;49.408;8.702;2022-11-14T10:40:50;10.60;99.90
6903;DHT22;20232;49.408;8.702;2022-11-14T10:43:31;10.80;99.90
6903;DHT22;20232;49.408;8.702;2022-11-14T10:48:43;10.90;99.90
6903;DHT22;20232;49.408;8.702;2022-11-14T10:53:59;11.00;99.90
6903;DHT22;20232;49.408;8.702;2022-11-14T10:56:26;11.10;99.90
6903;DHT22;20232;49.408;8.702;2022-11-14T10:58:52;11.40;99.90
6903;DHT22;20232;49.408;8.702;2022-11-14T11:06:51;12.00;99.90
6903;DHT22;20232;49.408;8.702;2022-11-14T11:09:20;11.80;99.90
6903;DHT22;20232;49.408;8.702;2022-11-14T11:12:05;11.70;99.90
6903;DHT22;20232;49.408;8.702;2022-11-14T11:14:32;11.70;99.90
6903;DHT22;20232;49.408;8.702;2022-11-14T11:19:38;11.50;99.90
6903;DHT22;20232;49.408;8.702;2022-11-14T11:22:08;11.50;99.90
6903;DHT22;20232;49.408;8.702;2022-11-14T11:24:47;11.60;99.90
6903;DHT22;20232;49.408;8.702;2022-11-14T11:32:31;11.40;99.90
6903;DHT22;20232;49.408;8.702;2022-11-14T11:35:00;11.40;99.90
6903;DHT22;20232;49.408;8.702;2022-11-14T11:37:37;11.40;99.90
6903;DHT22;20232;49.408;8.702;2022-11-14T11:40:06;11.30;99.90
6903;DHT22;20232;49.408;8.702;2022-11-14T11:43:01;11.30;99.90
6903;DHT22;20232;49.408;8.702;2022-11-14T11:45:26;11.10;99.90
6903;DHT22;20232;49.408;8.702;2022-11-14T11:50:31;11.00;99.90
6903;DHT22;20232;49.408;8.702;2022-11-14T11:56:16;10.90;99.90
6903;DHT22;20232;49.408;8.702;2022-11-14T11:58:47;10.90;99.90
6903;DHT22;20232;49.408;8.702;2022-11-14T12:01:15;10.90;99.90
6903;DHT22;20232;49.408;8.702;2022-11-14T12:03:46;10.90;99.90
6903;DHT22;20232;49.408;8.702;2022-11-14T12:06:20;11.00;99.90
6903;DHT22;20232;49.408;8.702;2022-11-14T12:09:18;11.00;99.90
6903;DHT22;20232;49.408;8.702;2022-11-14T12:11:56;11.10;99.90
6903;DHT22;20232;49.408;8.702;2022-11-14T12:20:16;11.10;99.90
6903;DHT22;20232;49.408;8.702;2022-11-14T12:26:19;11.00;99.90
6903;DHT22;20232;49.408;8.702;2022-11-14T12:31:37;11.00;99.90
6903;DHT22;20232;49.408;8.702;2022-11-14T12:34:20;11.00;99.90
6903;DHT22;20232;49.408;8.702;2022-11-14T12:36:48;11.10;99.90
6903;DHT22;20232;49.408;8.702;2022-11-14T12:39:27;11.00;99.90
6903;DHT22;20232;49.408;8.702;2022-11-14T12:42:02;11.00;99.90
6903;DHT22;20232;49.408;8.702;2022-11-14T12:44:35;11.10;99.90
6903;DHT22;20232;49.408;8.702;2022-11-14T12:52:44;11.10;99.90
6903;DHT22;20232;49.408;8.702;2022-11-14T13:00:30;11.10;99.90
6903;DHT22;20232;49.408;8.702;2022-11-14T13:03:10;11.10;99.90
6903;DHT22;20232;49.408;8.702;2022-11-14T13:05:57;11.10;99.90
6903;DHT22;20232;49.408;8.702;2022-11-14T13:14:15;11.80;99.90
6903;DHT22;20232;49.408;8.702;2022-11-14T13:17:28;12.00;99.90
6903;DHT22;20232;49.408;8.702;2022-11-14T13:20:33;12.30;99.90
6903;DHT22;20232;49.408;8.702;2022-11-14T13:31:24;11.90;99.90
6903;DHT22;20232;49.408;8.702;2022-11-14T13:33:57;11.80;99.90
6903;DHT22;20232;49.408;8.702;2022-11-14T13:44:33;12.00;99.90
6903;DHT22;20232;49.408;8.702;2022-11-14T13:50:11;12.40;99.90
6903;DHT22;20232;49.408;8.702;2022-11-14T13:52:47;12.50;99.90
6903;DHT22;20232;49.408;8.702;2022-11-14T14:06:32;12.60;99.90
6903;DHT22;20232;49.408;8.702;2022-11-14T14:09:12;12.40;99.90
6903;DHT22;20232;49.408;8.702;2022-11-14T14:17:35;12.20;99.90
6903;DHT22;20232;49.408;8.702;2022-11-14T14:20:53;12.20;99.90
6903;DHT22;20232;49.408;8.702;2022-11-14T14:33:42;11.80;99.90
6903;DHT22;20232;49.408;8.702;2022-11-14T14:36:35;11.80;99.90
6903;DHT22;20232;49.408;8.702;2022-11-14T14:39:21;11.70;99.90
6903;DHT22;20232;49.408;8.702;2022-11-14T14:41:51;11.70;99.90
6903;DHT22;20232;49.408;8.702;2022-11-14T14:44:37;11.70;99.90
6903;DHT22;20232;49.408;8.702;2022-11-14T14:47:41;11.70;99.90
6903;DHT22;20232;49.408;8.702;2022-11-14T14:50:16;11.70;99.90
6903;DHT22;20232;49.408;8.702;2022-11-14T14:52:43;11.70;99.90
6903;DHT22;20232;49.408;8.702;2022-11-14T14:55:30;11.60;99.90
6903;DHT22;20232;49.408;8.702;2022-11-14T14:58:24;11.60;99.90
6903;DHT22;20232;49.408;8.702;2022-11-14T15:01:12;11.60;99.90
6903;DHT22;20232;49.408;8.702;2022-11-14T15:03:45;11.50;99.90
6903;DHT22;20232;49.408;8.702;2022-11-14T15:09:01;11.40;99.90
6903;DHT22;20232;49.408;8.702;2022-11-14T15:11:27;11.40;99.90
6903;DHT22;20232;49.408;8.702;2022-11-14T15:13:56;11.40;99.90
6903;DHT22;20232;49.408;8.702;2022-11-14T15:16:24;11.40;99.90
6903;DHT22;20232;49.408;8.702;2022-11-14T15:18:52;11.30;99.90
6903;DHT22;20232;49.408;8.702;2022-11-14T15:21:29;11.30;99.90
6903;DHT22;20232;49.408;8.702;2022-11-14T15:24:15;11.30;99.90
6903;DHT22;20232;49.408;8.702;2022-11-14T15:26:46;11.30;99.90
6903;DHT22;20232;49.408;8.702;2022-11-14T15:29:20;11.40;99.90
6903;DHT22;20232;49.408;8.702;2022-11-14T15:31:54;11.30;99.90
6903;DHT22;20232;49.408;8.702;2022-11-14T15:34:34;11.40;99.90
6903;DHT22;20232;49.408;8.702;2022-11-14T15:39:37;11.40;99.90
6903;DHT22;20232;49.408;8.702;2022-11-14T15:44:49;11.40;99.90
6903;DHT22;20232;49.408;8.702;2022-11-14T15:52:59;11.40;99.90
6903;DHT22;20232;49.408;8.702;2022-11-14T15:55:25;11.40;99.90
6903;DHT22;20232;49.408;8.702;2022-11-14T15:57:51;11.40;99.90
6903;DHT22;20232;49.408;8.702;2022-11-14T16:00:17;11.40;99.90
6903;DHT22;20232;49.408;8.702;2022-11-14T16:02:55;11.40;99.90
6903;DHT22;20232;49.408;8.702;2022-11-14T16:05:25;11.30;99.90
6903;DHT22;20232;49.408;8.702;2022-11-14T16:07:52;11.30;99.90
6903;DHT22;20232;49.408;8.702;2022-11-14T16:10:20;11.30;99.90
6903;DHT22;20232;49.408;8.702;2022-11-14T16:12:46;11.40;99.90
6903;DHT22;20232;49.408;8.702;2022-11-14T16:15:11;11.40;99.90
6903;DHT22;20232;49.408;8.702;2022-11-14T16:17:39;11.40;99.90
6903;DHT22;20232;49.408;8.702;2022-11-14T16:20:09;11.40;99.90
6903;DHT22;20232;49.408;8.702;2022-11-14T16:22:35;11.40;99.90
6903;DHT22;20232;49.408;8.702;2022-11-14T16:25:01;11.40;99.90
6903;DHT22;20232;49.408;8.702;2022-11-14T16:27:27;11.40;99.90
6903;DHT22;20232;49.408;8.702;2022-11-14T16:29:53;11.50;99.90
6903;DHT22;20232;49.408;8.702;2022-11-14T16:32:18;11.50;99.90
6903;DHT22;20232;49.408;8.702;2022-11-14T16:34:44;11.50;99.90
6903;DHT22;20232;49.408;8.702;2022-11-14T16:37:11;11.50;99.90
6903;DHT22;20232;49.408;8.702;2022-11-14T16:39:37;11.50;99.90
6903;DHT22;20232;49.408;8.702;2022-11-14T16:42:03;11.60;99.90
6903;DHT22;20232;49.408;8.702;2022-11-14T16:44:30;11.60;99.90
6903;DHT22;20232;49.408;8.702;2022-11-14T16:46:55;11.60;99.90
6903;DHT22;20232;49.408;8.702;2022-11-14T16:49:21;11.60;99.90
6903;DHT22;20232;49.408;8.702;2022-11-14T16:51:48;11.60;99.90
6903;DHT22;20232;49.408;8.702;2022-11-14T16:54:15;11.60;99.90
6903;DHT22;20232;49.408;8.702;2022-11-14T16:56:41;11.60;99.90
6903;DHT22;20232;49.408;8.702;2022-11-14T16:59:08;11.60;99.90
6903;DHT22;20232;49.408;8.702;2022-11-14T17:01:34;11.50;99.90
6903;DHT22;20232;49.408;8.702;2022-11-14T17:04:00;11.50;99.90
6903;DHT22;20232;49.408;8.702;2022-11-14T17:06:29;11.50;99.90
6903;DHT22;20232;49.408;8.702;2022-11-14T17:08:55;11.60;99.90
6903;DHT22;20232;49.408;8.702;2022-11-14T17:11:22;11.60;99.90
6903;DHT22;20232;49.408;8.702;2022-11-14T17:13:48;11.60;99.90
6903;DHT22;20232;49.408;8.702;2022-11-14T17:16:14;11.60;99.90
6903;DHT22;20232;49.408;8.702;2022-11-14T17:18:40;11.60;99.90
6903;DHT22;20232;49.408;8.702;2022-11-14T17:21:08;11.60;99.90
6903;DHT22;20232;49.408;8.702;2022-11-14T17:23:34;11.60;99.90
6903;DHT22;20232;49.408;8.702;2022-11-14T17:26:04;11.60;99.90
6903;DHT22;20232;49.408;8.702;2022-11-14T17:28:29;11.60;99.90
6903;DHT22;20232;49.408;8.702;2022-11-14T17:30:55;11.70;99.90
6903;DHT22;20232;49.408;8.702;2022-11-14T17:33:21;11.70;99.90
6903;DHT22;20232;49.408;8.702;2022-11-14T17:35:46;11.70;99.90
6903;DHT22;20232;49.408;8.702;2022-11-14T17:38:12;11.80;99.90
6903;DHT22;20232;49.408;8.702;2022-11-14T17:40:37;11.80;99.90
6903;DHT22;20232;49.408;8.702;2022-11-14T17:43:03;11.80;99.90
6903;DHT22;20232;49.408;8.702;2022-11-14T17:45:28;11.80;99.90
6903;DHT22;20232;49.408;8.702;2022-11-14T17:47:54;11.80;99.90
6903;DHT22;20232;49.408;8.702;2022-11-14T17:50:20;11.70;99.90
6903;DHT22;20232;49.408;8.702;2022-11-14T17:52:45;11.70;99.90
6903;DHT22;20232;49.408;8.702;2022-11-14T17:55:11;11.70;99.90
6903;DHT22;20232;49.408;8.702;2022-11-14T17:57:37;11.70;99.90
6903;DHT22;20232;49.408;8.702;2022-11-14T18:00:03;11.70;99.90
6903;DHT22;20232;49.408;8.702;2022-11-14T18:02:31;11.70;99.90
6903;DHT22;20232;49.408;8.702;2022-11-14T18:04:57;11.70;99.90
6903;DHT22;20232;49.408;8.702;2022-11-14T18:07:22;11.70;99.90
6903;DHT22;20232;49.408;8.702;2022-11-14T18:09:48;11.70;99.90
6903;DHT22;20232;49.408;8.702;2022-11-14T18:12:13;11.70;99.90
6903;DHT22;20232;49.408;8.702;2022-11-14T18:14:39;11.60;99.90
6903;DHT22;20232;49.408;8.702;2022-11-14T18:17:05;11.60;99.90
6903;DHT22;20232;49.408;8.702;2022-11-14T18:19:30;11.60;99.90
6903;DHT22;20232;49.408;8.702;2022-11-14T18:21:56;11.60;99.90
6903;DHT22;20232;49.408;8.702;2022-11-14T18:24:21;11.70;99.90
6903;DHT22;20232;49.408;8.702;2022-11-14T18:26:48;11.60;99.90
6903;DHT22;20232;49.408;8.702;2022-11-14T18:29:13;11.60;99.90
6903;DHT22;20232;49.408;8.702;2022-11-14T18:31:40;11.60;99.90
6903;DHT22;20232;49.408;8.702;2022-11-14T18:34:05;11.60;99.90
6903;DHT22;20232;49.408;8.702;2022-11-14T18:36:31;11.50;99.90
6903;DHT22;20232;49.408;8.702;2022-11-14T18:38:57;11.50;99.90
6903;DHT22;20232;49.408;8.702;2022-11-14T18:41:23;11.50;99.90
6903;DHT22;20232;49.408;8.702;2022-11-14T18:43:48;11.50;99.90
6903;DHT22;20232;49.408;8.702;2022-11-14T18:46:23;11.50;99.90
6903;DHT22;20232;49.408;8.702;2022-11-14T18:48:52;11.50;99.90
6903;DHT22;20232;49.408;8.702;2022-11-14T18:51:20;11.40;99.90
6903;DHT22;20232;49.408;8.702;2022-11-14T18:53:46;11.40;99.90
6903;DHT22;20232;49.408;8.702;2022-11-14T18:56:14;11.40;99.90
6903;DHT22;20232;49.408;8.702;2022-11-14T18:58:41;11.50;99.90
6903;DHT22;20232;49.408;8.702;2022-11-14T19:01:15;11.50;99.90
6903;DHT22;20232;49.408;8.702;2022-11-14T19:03:42;11.40;99.90
6903;DHT22;20232;49.408;8.702;2022-11-14T19:06:11;11.40;99.90
6903;DHT22;20232;49.408;8.702;2022-11-14T19:08:36;11.40;99.90
6903;DHT22;20232;49.408;8.702;2022-11-14T19:11:04;11.40;99.90
6903;DHT22;20232;49.408;8.702;2022-11-14T19:13:30;11.50;99.90
6903;DHT22;20232;49.408;8.702;2022-11-14T19:16:03;11.50;99.90
6903;DHT22;20232;49.408;8.702;2022-11-14T19:18:30;11.40;99.90
6903;DHT22;20232;49.408;8.702;2022-11-14T19:20:57;11.40;99.90
6903;DHT22;20232;49.408;8.702;2022-11-14T19:23:23;11.30;99.90
6903;DHT22;20232;49.408;8.702;2022-11-14T19:25:48;11.20;99.90
6903;DHT22;20232;49.408;8.702;2022-11-14T19:28:14;11.20;99.90
6903;DHT22;20232;49.408;8.702;2022-11-14T19:30:39;11.20;99.90
6903;DHT22;20232;49.408;8.702;2022-11-14T19:33:05;11.20;99.90
6903;DHT22;20232;49.408;8.702;2022-11-14T19:35:30;11.20;99.90
6903;DHT22;20232;49.408;8.702;2022-11-14T19:37:56;11.20;99.90
6903;DHT22;20232;49.408;8.702;2022-11-14T19:40:22;11.20;99.90
6903;DHT22;20232;49.408;8.702;2022-11-14T19:42:51;11.20;99.90
6903;DHT22;20232;49.408;8.702;2022-11-14T19:45:16;11.30;99.90
6903;DHT22;20232;49.408;8.702;2022-11-14T19:47:42;11.30;99.90
6903;DHT22;20232;49.408;8.702;2022-11-14T19:50:08;11.30;99.90
6903;DHT22;20232;49.408;8.702;2022-11-14T19:52:34;11.30;99.90
6903;DHT22;20232;49.408;8.702;2022-11-14T19:54:59;11.30;99.90
6903;DHT22;20232;49.408;8.702;2022-11-14T19:57:28;11.30;99.90
6903;DHT22;20232;49.408;8.702;2022-11-14T19:59:54;11.20;99.90
6903;DHT22;20232;49.408;8.702;2022-11-14T20:02:19;11.20;99.90
6903;DHT22;20232;49.408;8.702;2022-11-14T20:04:45;11.10;99.90
6903;DHT22;20232;49.408;8.702;2022-11-14T20:07:14;11.20;99.90
6903;DHT22;20232;49.408;8.702;2022-11-14T20:09:40;11.20;99.90
6903;DHT22;20232;49.408;8.702;2022-11-14T20:12:05;11.20;99.90
6903;DHT22;20232;49.408;8.702;2022-11-14T20:14:31;11.10;99.90
6903;DHT22;20232;49.408;8.702;2022-11-14T20:16:57;11.10;99.90
6903;DHT22;20232;49.408;8.702;2022-11-14T20:19:22;11.10;99.90
6903;DHT22;20232;49.408;8.702;2022-11-14T20:21:48;11.10;99.90
6903;DHT22;20232;49.408;8.702;2022-11-14T20:24:13;11.10;99.90
6903;DHT22;20232;49.408;8.702;2022-11-14T20:26:45;11.10;99.90
6903;DHT22;20232;49.408;8.702;2022-11-14T20:29:11;11.10;99.90
6903;DHT22;20232;49.408;8.702;2022-11-14T20:31:37;11.10;99.90
6903;DHT22;20232;49.408;8.702;2022-11-14T20:34:02;11.10;99.90
6903;DHT22;20232;49.408;8.702;2022-11-14T20:36:28;11.30;99.90
6903;DHT22;20232;49.408;8.702;2022-11-14T20:38:54;11.20;99.90
6903;DHT22;20232;49.408;8.702;2022-11-14T20:41:20;11.30;99.90
6903;DHT22;20232;49.408;8.702;2022-11-14T20:43:46;11.30;99.90
6903;DHT22;20232;49.408;8.702;2022-11-14T20:46:14;11.30;99.90
6903;DHT22;20232;49.408;8.702;2022-11-14T20:48:41;11.30;99.90
6903;DHT22;20232;49.408;8.702;2022-11-14T20:51:13;11.30;99.90
6903;DHT22;20232;49.408;8.702;2022-11-14T20:53:39;11.30;99.90
6903;DHT22;20232;49.408;8.702;2022-11-14T20:56:05;11.30;99.90
6903;DHT22;20232;49.408;8.702;2022-11-14T20:58:31;11.30;99.90
6903;DHT22;20232;49.408;8.702;2022-11-14T21:00:57;11.30;99.90
6903;DHT22;20232;49.408;8.702;2022-11-14T21:03:23;11.30;99.90
6903;DHT22;20232;49.408;8.702;2022-11-14T21:05:49;11.20;99.90
6903;DHT22;20232;49.408;8.702;2022-11-14T21:08:15;11.20;99.90
6903;DHT22;20232;49.408;8.702;2022-11-14T21:10:44;11.20;99.90
6903;DHT22;20232;49.408;8.702;2022-11-14T21:13:13;11.20;99.90
6903;DHT22;20232;49.408;8.702;2022-11-14T21:15:58;11.20;99.90
6903;DHT22;20232;49.408;8.702;2022-11-14T21:18:24;11.20;99.90
6903;DHT22;20232;49.408;8.702;2022-11-14T21:20:57;11.30;99.90
6903;DHT22;20232;49.408;8.702;2022-11-14T21:23:23;11.30;99.90
6903;DHT22;20232;49.408;8.702;2022-11-14T21:25:49;11.30;99.90
6903;DHT22;20232;49.408;8.702;2022-11-14T21:28:14;11.30;99.90
6903;DHT22;20232;49.408;8.702;2022-11-14T21:30:40;11.20;99.90
6903;DHT22;20232;49.408;8.702;2022-11-14T21:33:06;11.30;99.90
6903;DHT22;20232;49.408;8.702;2022-11-14T21:35:32;11.30;99.90
6903;DHT22;20232;49.408;8.702;2022-11-14T21:38:00;11.30;99.90
6903;DHT22;20232;49.408;8.702;2022-11-14T21:40:26;11.20;99.90
6903;DHT22;20232;49.408;8.702;2022-11-14T21:42:51;11.20;99.90
6903;DHT22;20232;49.408;8.702;2022-11-14T21:45:17;11.10;99.90
6903;DHT22;20232;49.408;8.702;2022-11-14T21:47:42;11.10;99.90
6903;DHT22;20232;49.408;8.702;2022-11-14T21:50:08;11.00;99.90
6903;DHT22;20232;49.408;8.702;2022-11-14T21:52:35;11.00;99.90
6903;DHT22;20232;49.408;8.702;2022-11-14T21:55:00;11.00;99.90
6903;DHT22;20232;49.408;8.702;2022-11-14T21:57:26;11.00;99.90
6903;DHT22;20232;49.408;8.702;2022-11-14T21:59:52;11.00;99.90
6903;DHT22;20232;49.408;8.702;2022-11-14T22:02:17;11.00;99.90
6903;DHT22;20232;49.408;8.702;2022-11-14T22:05:01;11.10;99.90
6903;DHT22;20232;49.408;8.702;2022-11-14T22:07:27;11.10;99.90
6903;DHT22;20232;49.408;8.702;2022-11-14T22:09:52;11.10;99.90
6903;DHT22;20232;49.408;8.702;2022-11-14T22:12:18;11.20;99.90
6903;DHT22;20232;49.408;8.702;2022-11-14T22:14:43;11.20;99.90
6903;DHT22;20232;49.408;8.702;2022-11-14T22:17:09;11.20;99.90
6903;DHT22;20232;49.408;8.702;2022-11-14T22:19:35;11.20;99.90
6903;DHT22;20232;49.408;8.702;2022-11-14T22:22:00;11.10;99.90
6903;DHT22;20232;49.408;8.702;2022-11-14T22:24:26;11.10;99.90
6903;DHT22;20232;49.408;8.702;2022-11-14T22:26:51;11.00;99.90
6903;DHT22;20232;49.408;8.702;2022-11-14T22:29:17;11.10;99.90
6903;DHT22;20232;49.408;8.702;2022-11-14T22:31:42;11.10;99.90
6903;DHT22;20232;49.408;8.702;2022-11-14T22:34:10;11.10;99.90
6903;DHT22;20232;49.408;8.702;2022-11-14T22:36:35;11.20;99.90
6903;DHT22;20232;49.408;8.702;2022-11-14T22:39:01;11.20;99.90
6903;DHT22;20232;49.408;8.702;2022-11-14T22:41:29;11.20;99.90
6903;DHT22;20232;49.408;8.702;2022-11-14T22:43:55;11.20;99.90
6903;DHT22;20232;49.408;8.702;2022-11-14T22:46:22;11.20;99.90
6903;DHT22;20232;49.408;8.702;2022-11-14T22:48:48;11.10;99.90
6903;DHT22;20232;49.408;8.702;2022-11-14T22:51:32;11.00;99.90
6903;DHT22;20232;49.408;8.702;2022-11-14T22:53:57;10.90;99.90
6903;DHT22;20232;49.408;8.702;2022-11-14T22:56:26;10.80;99.90
6903;DHT22;20232;49.408;8.702;2022-11-14T22:58:52;10.80;99.90
6903;DHT22;20232;49.408;8.702;2022-11-14T23:01:27;10.80;99.90
6903;DHT22;20232;49.408;8.702;2022-11-14T23:03:54;10.70;99.90
6903;DHT22;20232;49.408;8.702;2022-11-14T23:06:21;10.50;99.90
6903;DHT22;20232;49.408;8.702;2022-11-14T23:08:47;10.50;99.90
6903;DHT22;20232;49.408;8.702;2022-11-14T23:11:16;10.40;99.90
6903;DHT22;20232;49.408;8.702;2022-11-14T23:13:44;10.30;99.90
6903;DHT22;20232;49.408;8.702;2022-11-14T23:16:12;10.30;99.90
6903;DHT22;20232;49.408;8.702;2022-11-14T23:18:38;10.20;99.90
6903;DHT22;20232;49.408;8.702;2022-11-14T23:21:09;10.20;99.90